Terminal Aerodrome Forecast
Issued by NWS

Home | Current Version | Previous Version | Text Only | Print | Product List | Glossary On
Versions: 1 2 3 4 5 6 7 8 9 10 11 12 13 14 15 16 17 18 19 20 21 22 23 24 25 26 27 28 29 30 31 32
000
FTUS46 KEKA 211742
TAFCEC
TAF
KCEC 211742Z 2118/2218 16012KT P6SM SCT028 OVC250
     FM212000 16013G18KT P6SM SCT028 BKN070 OVC250
      TEMPO 2122/2124 BKN028
     FM220100 15012KT P6SM SCT025 BKN050 OVC150
     FM220500 15010KT P6SM VCSH SCT020 OVC050
     FM220900 15015G22KT P6SM -RA BKN020 OVC050
     FM221500 15015G22KT 4SM -RA BR OVC015=

USA.gov is the U.S. government's official web portal to all federal, state and local government web resources and services.